createdAt,value
2018-09-23T00:00:22.578Z,0.00
2018-09-23T00:01:22.578Z,0.00
2018-09-23T00:02:22.501Z,0.00
2018-09-23T00:03:22.454Z,0.00
2018-09-23T00:04:22.432Z,0.00
2018-09-23T00:05:22.376Z,0.00
2018-09-23T00:06:22.318Z,0.00
2018-09-23T00:07:22.280Z,0.00
2018-09-23T00:08:22.228Z,0.00
2018-09-23T00:09:22.235Z,0.00
2018-09-23T00:10:22.172Z,0.00
2018-09-23T00:11:22.131Z,0.00
2018-09-23T00:12:22.109Z,0.00
2018-09-23T00:13:22.042Z,0.00
2018-09-23T00:14:22.010Z,0.00
2018-09-23T00:15:21.957Z,0.00
2018-09-23T00:16:21.913Z,0.00
2018-09-23T00:17:21.878Z,0.00
2018-09-23T00:18:21.818Z,0.00
2018-09-23T00:19:21.806Z,0.00
2018-09-23T00:20:21.739Z,0.00
2018-09-23T00:21:21.714Z,0.00
2018-09-23T00:22:21.711Z,0.00
2018-09-23T00:23:21.637Z,0.00
2018-09-23T00:24:21.608Z,0.00
2018-09-23T00:25:21.536Z,0.00
2018-09-23T00:26:21.518Z,0.00
2018-09-23T00:27:21.461Z,0.00
2018-09-23T00:28:21.416Z,0.00
2018-09-23T00:29:21.400Z,0.00
2018-09-23T00:30:21.352Z,0.00
2018-09-23T00:31:21.298Z,0.00
2018-09-23T00:32:21.255Z,0.00
2018-09-23T00:33:32.687Z,0.00
2018-09-23T00:34:21.162Z,0.00
2018-09-23T00:35:21.138Z,0.00
2018-09-23T00:36:21.080Z,0.00
2018-09-23T00:37:21.036Z,0.00
2018-09-23T00:38:20.995Z,0.00
2018-09-23T00:39:20.962Z,0.00
2018-09-23T00:40:20.948Z,0.00
2018-09-23T00:41:20.875Z,0.00
2018-09-23T00:42:20.844Z,0.00
2018-09-23T00:43:20.796Z,0.00
2018-09-23T00:44:20.753Z,0.00
2018-09-23T00:45:20.708Z,0.00
2018-09-23T00:46:20.694Z,0.00
2018-09-23T00:47:20.629Z,0.00
2018-09-23T00:48:20.582Z,0.00
2018-09-23T00:49:20.535Z,0.00
2018-09-23T00:50:20.512Z,0.00
2018-09-23T00:51:20.504Z,0.00
2018-09-23T00:52:20.416Z,0.00
2018-09-23T00:53:20.392Z,0.00
2018-09-23T00:54:20.345Z,0.00
2018-09-23T00:55:20.293Z,0.00
2018-09-23T00:56:20.272Z,0.00
2018-09-23T00:57:20.218Z,0.00
2018-09-23T00:58:20.206Z,0.00
2018-09-23T00:59:20.134Z,0.00
2018-09-23T01:00:20.105Z,0.00
2018-09-23T01:01:20.067Z,0.00
2018-09-23T01:02:20.009Z,0.00
2018-09-23T01:03:19.978Z,0.00
2018-09-23T01:04:19.958Z,0.00
2018-09-23T01:05:19.888Z,0.00
2018-09-23T01:06:19.883Z,0.00
2018-09-23T01:07:19.813Z,0.00
2018-09-23T01:08:19.755Z,0.00
2018-09-23T01:09:19.722Z,0.00
2018-09-23T01:10:19.727Z,0.00
2018-09-23T01:11:19.645Z,0.00
2018-09-23T01:12:19.645Z,0.00
2018-09-23T01:13:19.591Z,0.00
2018-09-23T01:14:19.516Z,0.00
2018-09-23T01:15:19.481Z,0.00
2018-09-23T01:16:19.481Z,0.00
2018-09-23T01:17:19.415Z,0.00
2018-09-23T01:18:19.350Z,0.00
2018-09-23T01:19:19.312Z,0.00
2018-09-23T01:20:28.245Z,0.00
2018-09-23T01:21:19.239Z,0.00
2018-09-23T01:22:19.182Z,0.00
2018-09-23T01:23:19.167Z,0.00
2018-09-23T01:24:19.104Z,0.00
2018-09-23T01:25:19.066Z,0.00
2018-09-23T01:26:19.022Z,0.00
2018-09-23T01:27:18.981Z,0.00
2018-09-23T01:28:18.959Z,0.00
2018-09-23T01:29:18.932Z,0.00
2018-09-23T01:30:18.863Z,0.00
2018-09-23T01:31:18.887Z,0.00
2018-09-23T01:32:18.770Z,0.00
2018-09-23T01:33:28.794Z,0.00
2018-09-23T01:34:18.719Z,0.00
2018-09-23T01:35:18.648Z,0.00
2018-09-23T01:36:18.618Z,0.00
2018-09-23T01:37:18.582Z,0.00
2018-09-23T01:38:18.548Z,0.00
2018-09-23T01:39:18.492Z,0.00
2018-09-23T01:40:18.442Z,0.00
2018-09-23T01:41:18.419Z,0.00
2018-09-23T01:42:18.365Z,0.00
2018-09-23T01:43:18.308Z,0.00
2018-09-23T01:44:18.288Z,0.00
2018-09-23T01:45:18.231Z,0.00
2018-09-23T01:46:18.204Z,0.00
2018-09-23T01:47:18.151Z,0.00
2018-09-23T01:48:18.100Z,0.00
2018-09-23T01:49:18.109Z,0.00
2018-09-23T01:50:18.026Z,0.00
2018-09-23T01:51:18.025Z,0.00
2018-09-23T01:52:17.958Z,0.00
2018-09-23T01:53:17.915Z,0.00
2018-09-23T01:54:17.893Z,0.00
2018-09-23T01:55:17.833Z,0.00
2018-09-23T01:56:17.781Z,0.00
2018-09-23T01:57:17.753Z,0.00
2018-09-23T01:58:17.716Z,0.00
2018-09-23T01:59:17.674Z,0.00
2018-09-23T02:00:17.678Z,0.00
2018-09-23T02:01:17.579Z,0.00
2018-09-23T02:02:17.559Z,0.00
2018-09-23T02:03:17.530Z,0.00
2018-09-23T02:04:17.468Z,0.00
2018-09-23T02:05:17.462Z,0.00
2018-09-23T02:06:17.396Z,0.00
2018-09-23T02:07:17.355Z,0.00
2018-09-23T02:08:17.285Z,0.00
2018-09-23T02:09:17.248Z,0.00
2018-09-23T02:10:17.229Z,0.00
2018-09-23T02:11:17.169Z,0.00
2018-09-23T02:12:17.136Z,0.00
2018-09-23T02:13:17.085Z,0.00
2018-09-23T02:14:17.081Z,0.00
2018-09-23T02:15:17.026Z,0.00
2018-09-23T02:16:16.981Z,0.00
2018-09-23T02:17:16.929Z,0.00
2018-09-23T02:18:16.880Z,0.00
2018-09-23T02:19:16.852Z,0.00
2018-09-23T02:20:16.811Z,0.00
2018-09-23T02:21:16.811Z,0.00
2018-09-23T02:22:16.747Z,0.00
2018-09-23T02:23:16.675Z,0.00
2018-09-23T02:24:16.683Z,0.00
2018-09-23T02:25:16.602Z,0.00
2018-09-23T02:26:16.582Z,0.00
2018-09-23T02:27:16.506Z,0.00
2018-09-23T02:28:16.510Z,0.00
2018-09-23T02:29:16.436Z,0.00
2018-09-23T02:30:16.395Z,0.00
2018-09-23T02:31:16.420Z,0.00
2018-09-23T02:32:16.314Z,0.00
2018-09-23T02:33:16.257Z,0.00
2018-09-23T02:34:16.234Z,0.00
2018-09-23T02:35:16.184Z,0.00
2018-09-23T02:36:27.139Z,0.00
2018-09-23T02:37:16.114Z,0.00
2018-09-23T02:38:16.076Z,0.00
2018-09-23T02:39:16.006Z,0.00
2018-09-23T02:40:15.983Z,0.00
2018-09-23T02:41:15.930Z,0.00
2018-09-23T02:42:15.915Z,0.00
2018-09-23T02:43:15.847Z,0.00
2018-09-23T02:44:15.817Z,0.00
2018-09-23T02:45:15.766Z,0.00
2018-09-23T02:46:15.753Z,0.00
2018-09-23T02:47:15.721Z,0.00
2018-09-23T02:48:15.659Z,0.00
2018-09-23T02:49:15.607Z,0.00
2018-09-23T02:50:15.561Z,0.00
2018-09-23T02:51:15.544Z,0.00
2018-09-23T02:52:15.514Z,0.00
2018-09-23T02:53:15.448Z,0.00
2018-09-23T02:54:15.403Z,0.00
2018-09-23T02:55:15.364Z,0.00
2018-09-23T02:56:15.352Z,0.00
2018-09-23T02:57:15.289Z,0.00
2018-09-23T02:58:15.258Z,0.00
2018-09-23T02:59:15.209Z,0.00
2018-09-23T03:00:15.158Z,0.00
2018-09-23T03:01:15.138Z,0.00
2018-09-23T03:02:15.072Z,0.00
2018-09-23T03:03:15.082Z,0.00
2018-09-23T03:04:14.985Z,0.00
2018-09-23T03:05:14.948Z,0.00
2018-09-23T03:06:14.920Z,0.00
2018-09-23T03:07:14.870Z,0.00
2018-09-23T03:08:14.844Z,0.00
2018-09-23T03:09:14.783Z,0.00
2018-09-23T03:10:14.746Z,0.00
2018-09-23T03:11:14.702Z,0.00
2018-09-23T03:12:14.671Z,0.00
2018-09-23T03:13:14.636Z,0.00
2018-09-23T03:14:14.612Z,0.00
2018-09-23T03:15:14.539Z,0.00
2018-09-23T03:16:14.498Z,0.00
2018-09-23T03:17:14.473Z,0.00
2018-09-23T03:18:24.841Z,0.00
2018-09-23T03:19:14.389Z,0.00
2018-09-23T03:20:14.322Z,0.00
2018-09-23T03:21:14.277Z,0.00
2018-09-23T03:22:14.246Z,0.00
2018-09-23T03:23:14.245Z,0.00
2018-09-23T03:24:14.201Z,0.00
2018-09-23T03:25:14.129Z,0.00
2018-09-23T03:26:14.112Z,0.00
2018-09-23T03:27:14.041Z,0.00
2018-09-23T03:28:14.002Z,0.00
2018-09-23T03:29:13.968Z,0.00
2018-09-23T03:30:13.938Z,0.00
2018-09-23T03:31:13.885Z,0.00
2018-09-23T03:32:13.848Z,0.00
2018-09-23T03:33:13.793Z,0.00
2018-09-23T03:34:13.752Z,0.00
2018-09-23T03:35:13.761Z,0.00
2018-09-23T03:36:13.692Z,0.00
2018-09-23T03:37:13.640Z,0.00
2018-09-23T03:38:13.594Z,0.00
2018-09-23T03:39:13.561Z,0.00
2018-09-23T03:40:13.538Z,0.00
2018-09-23T03:41:13.471Z,0.00
2018-09-23T03:42:13.417Z,0.00
2018-09-23T03:43:13.391Z,0.00
2018-09-23T03:44:13.348Z,0.00
2018-09-23T03:45:13.339Z,0.00
2018-09-23T03:46:13.255Z,0.00
2018-09-23T03:47:13.222Z,0.00
2018-09-23T03:48:13.174Z,0.00
2018-09-23T03:49:13.134Z,0.00
2018-09-23T03:50:13.127Z,0.00
2018-09-23T03:51:13.045Z,0.00
2018-09-23T03:52:13.032Z,0.00
2018-09-23T03:53:12.966Z,0.00
2018-09-23T03:54:12.932Z,0.00
2018-09-23T03:55:12.920Z,0.00
2018-09-23T03:56:12.850Z,0.00
2018-09-23T03:57:12.812Z,0.00
2018-09-23T03:58:12.798Z,0.00
2018-09-23T03:59:12.719Z,0.00
2018-09-23T04:00:12.707Z,0.00
2018-09-23T04:01:12.655Z,0.00
2018-09-23T04:02:12.602Z,0.00
2018-09-23T04:03:12.570Z,0.00
2018-09-23T04:04:12.527Z,0.00
2018-09-23T04:05:12.517Z,0.00
2018-09-23T04:06:12.447Z,0.00
2018-09-23T04:07:12.398Z,0.00
2018-09-23T04:08:12.365Z,0.00
2018-09-23T04:09:12.357Z,0.00
2018-09-23T04:10:12.323Z,0.00
2018-09-23T04:11:12.243Z,0.00
2018-09-23T04:12:12.285Z,0.00
2018-09-23T04:13:12.173Z,0.00
2018-09-23T04:14:12.131Z,0.00
2018-09-23T04:15:12.107Z,0.00
2018-09-23T04:16:12.022Z,0.00
2018-09-23T04:17:11.987Z,0.00
2018-09-23T04:18:11.942Z,0.00
2018-09-23T04:19:11.936Z,0.00
2018-09-23T04:20:11.868Z,0.00
2018-09-23T04:21:11.841Z,0.00
2018-09-23T04:22:11.779Z,0.00
2018-09-23T04:23:11.743Z,0.00
2018-09-23T04:24:11.748Z,0.00
2018-09-23T04:25:11.662Z,0.00
2018-09-23T04:26:11.650Z,0.00
2018-09-23T04:27:11.565Z,0.00
2018-09-23T04:28:11.537Z,0.00
2018-09-23T04:29:21.367Z,0.00
2018-09-23T04:30:11.532Z,0.00
2018-09-23T04:31:11.421Z,0.00
2018-09-23T04:32:11.375Z,0.00
2018-09-23T04:33:11.327Z,0.00
2018-09-23T04:34:11.301Z,0.00
2018-09-23T04:35:11.245Z,0.00
2018-09-23T04:36:11.211Z,0.00
2018-09-23T04:37:11.168Z,0.00
2018-09-23T04:38:11.129Z,0.00
2018-09-23T04:39:11.104Z,0.00
2018-09-23T04:40:11.097Z,0.00
2018-09-23T04:41:11.026Z,0.00
2018-09-23T04:42:10.949Z,0.00
2018-09-23T04:43:10.931Z,0.00
2018-09-23T04:44:10.906Z,0.00
2018-09-23T04:45:10.834Z,0.00
2018-09-23T04:46:10.797Z,0.00
2018-09-23T04:47:10.751Z,0.00
2018-09-23T04:48:10.712Z,0.00
2018-09-23T04:49:10.723Z,0.00
2018-09-23T04:50:10.649Z,0.00
2018-09-23T04:51:10.635Z,0.00
2018-09-23T04:52:10.564Z,0.00
2018-09-23T04:53:20.870Z,0.00
2018-09-23T04:54:10.476Z,4.00
2018-09-23T04:55:10.492Z,4.00
2018-09-23T04:56:10.389Z,4.00
2018-09-23T04:57:10.342Z,0.00
2018-09-23T04:58:10.300Z,4.00
2018-09-23T04:59:10.279Z,4.00
2018-09-23T05:00:10.231Z,4.00
2018-09-23T05:01:10.183Z,8.00
2018-09-23T05:02:10.179Z,8.00
2018-09-23T05:03:10.129Z,8.00
2018-09-23T05:04:10.099Z,8.00
2018-09-23T05:05:10.034Z,12.00
2018-09-23T05:06:09.976Z,12.00
2018-09-23T05:07:09.985Z,16.00
2018-09-23T05:08:09.912Z,16.00
2018-09-23T05:09:09.857Z,20.00
2018-09-23T05:10:09.846Z,20.00
2018-09-23T05:11:09.766Z,24.00
2018-09-23T05:12:09.735Z,32.00
2018-09-23T05:13:09.717Z,36.00
2018-09-23T05:14:09.679Z,48.00
2018-09-23T05:15:09.606Z,56.00
2018-09-23T05:16:09.566Z,68.00
2018-09-23T05:17:19.980Z,76.00
2018-09-23T05:18:09.493Z,76.00
2018-09-23T05:19:09.432Z,88.00
2018-09-23T05:20:09.464Z,100.00
2018-09-23T05:21:09.541Z,116.00
2018-09-23T05:22:09.312Z,136.00
2018-09-23T05:23:09.295Z,144.00
2018-09-23T05:24:09.251Z,160.00
2018-09-23T05:25:09.186Z,156.00
2018-09-23T05:26:09.142Z,152.00
2018-09-23T05:27:09.111Z,168.00
2018-09-23T05:28:09.107Z,200.00
2018-09-23T05:29:09.024Z,240.00
2018-09-23T05:30:09.028Z,296.00
2018-09-23T05:31:08.979Z,352.00
2018-09-23T05:32:08.913Z,396.00
2018-09-23T05:33:08.895Z,444.00
2018-09-23T05:34:08.854Z,508.00
2018-09-23T05:35:08.801Z,540.00
2018-09-23T05:36:08.734Z,500.00
2018-09-23T05:37:08.706Z,452.00
2018-09-23T05:38:08.696Z,440.00
2018-09-23T05:39:08.635Z,468.00
2018-09-23T05:40:08.600Z,532.00
2018-09-23T05:41:08.560Z,540.00
2018-09-23T05:42:08.490Z,540.00
2018-09-23T05:43:08.474Z,540.00
2018-09-23T05:44:08.459Z,504.00
2018-09-23T05:45:16.429Z,484.00
2018-09-23T05:46:08.322Z,500.00
2018-09-23T05:47:08.304Z,536.00
2018-09-23T05:48:08.275Z,536.00
2018-09-23T05:49:08.215Z,492.00
2018-09-23T05:50:08.176Z,476.00
2018-09-23T05:51:08.137Z,496.00
2018-09-23T05:52:08.098Z,560.00
2018-09-23T05:53:08.054Z,656.00
2018-09-23T05:54:08.000Z,776.00
2018-09-23T05:55:07.967Z,916.00
2018-09-23T05:56:07.964Z,1084.00
2018-09-23T05:57:07.921Z,1192.00
2018-09-23T05:58:07.829Z,1212.00
2018-09-23T05:59:07.793Z,1208.00
2018-09-23T06:00:07.786Z,1256.00
2018-09-23T06:01:07.719Z,1308.00
2018-09-23T06:02:07.725Z,1292.00
2018-09-23T06:03:07.690Z,1260.00
2018-09-23T06:04:07.589Z,1208.00
2018-09-23T06:05:07.561Z,1124.00
2018-09-23T06:06:07.523Z,1060.00
2018-09-23T06:07:07.498Z,976.00
2018-09-23T06:08:07.438Z,892.00
2018-09-23T06:09:07.398Z,888.00
2018-09-23T06:10:07.367Z,920.00
2018-09-23T06:11:07.351Z,956.00
2018-09-23T06:12:07.288Z,992.00
2018-09-23T06:13:07.218Z,1012.00
2018-09-23T06:14:07.199Z,1024.00
2018-09-23T06:15:07.158Z,988.00
2018-09-23T06:16:07.120Z,908.00
2018-09-23T06:17:07.093Z,856.00
2018-09-23T06:18:07.042Z,876.00
2018-09-23T06:19:06.981Z,920.00
2018-09-23T06:20:06.937Z,952.00
2018-09-23T06:21:06.906Z,920.00
2018-09-23T06:22:06.884Z,916.00
2018-09-23T06:23:06.834Z,1004.00
2018-09-23T06:24:06.771Z,1172.00
2018-09-23T06:25:06.774Z,1356.00
2018-09-23T06:26:06.704Z,1528.00
2018-09-23T06:27:06.678Z,1636.00
2018-09-23T06:28:06.619Z,1656.00
2018-09-23T06:29:06.588Z,1684.00
2018-09-23T06:30:06.521Z,1832.00
2018-09-23T06:31:06.492Z,2080.00
2018-09-23T06:32:06.479Z,2356.00
2018-09-23T06:33:06.439Z,2688.00
2018-09-23T06:34:06.425Z,2884.00
2018-09-23T06:35:06.330Z,2912.00
2018-09-23T06:36:06.323Z,2956.00
2018-09-23T06:37:06.311Z,3064.00
2018-09-23T06:38:06.217Z,3056.00
2018-09-23T06:39:06.178Z,2964.00
2018-09-23T06:40:06.153Z,2932.00
2018-09-23T06:41:06.115Z,3032.00
2018-09-23T06:42:06.073Z,3140.00
2018-09-23T06:43:06.008Z,3176.00
2018-09-23T06:44:06.047Z,3224.00
2018-09-23T06:45:05.923Z,3184.00
2018-09-23T06:46:05.943Z,3076.00
2018-09-23T06:47:05.876Z,2992.00
2018-09-23T06:48:05.805Z,2904.00
2018-09-23T06:49:05.761Z,2800.00
2018-09-23T06:50:05.729Z,2836.00
2018-09-23T06:51:05.763Z,3000.00
2018-09-23T06:52:05.647Z,3108.00
2018-09-23T06:53:05.628Z,3076.00
2018-09-23T06:54:05.584Z,2968.00
2018-09-23T06:55:05.526Z,2880.00
2018-09-23T06:56:05.538Z,2792.00
2018-09-23T06:57:05.463Z,2748.00
2018-09-23T06:58:05.415Z,2756.00
2018-09-23T06:59:05.353Z,2852.00
2018-09-23T07:00:05.378Z,2984.00
2018-09-23T07:01:05.306Z,3048.00
2018-09-23T07:02:05.232Z,3064.00
2018-09-23T07:03:05.181Z,3032.00
2018-09-23T07:04:05.176Z,3036.00
2018-09-23T07:05:05.193Z,3044.00
2018-09-23T07:06:05.117Z,3108.00
2018-09-23T07:07:05.029Z,3316.00
2018-09-23T07:08:05.004Z,3608.00
2018-09-23T07:09:04.962Z,3932.00
2018-09-23T07:10:04.935Z,4184.00
2018-09-23T07:11:05.015Z,4308.00
2018-09-23T07:12:04.927Z,4216.00
2018-09-23T07:13:04.844Z,3904.00
2018-09-23T07:14:04.754Z,3676.00
2018-09-23T07:15:04.739Z,3532.00
2018-09-23T07:16:04.691Z,3392.00
2018-09-23T07:17:04.642Z,3400.00
2018-09-23T07:18:04.733Z,3516.00
2018-09-23T07:19:04.583Z,3608.00
2018-09-23T07:20:04.533Z,3616.00
2018-09-23T07:21:04.478Z,3712.00
2018-09-23T07:22:04.470Z,3876.00
2018-09-23T07:23:04.404Z,3984.00
2018-09-23T07:24:04.545Z,4192.00
2018-09-23T07:25:04.340Z,4060.00
2018-09-23T07:26:04.282Z,4064.00
2018-09-23T07:27:04.248Z,4404.00
2018-09-23T07:28:04.194Z,4640.00
2018-09-23T07:29:04.222Z,4956.00
2018-09-23T07:30:04.211Z,5544.00
2018-09-23T07:31:04.075Z,5776.00
2018-09-23T07:32:04.048Z,5600.00
2018-09-23T07:33:04.016Z,5476.00
2018-09-23T07:34:03.954Z,5532.00
2018-09-23T07:35:03.935Z,5764.00
2018-09-23T07:36:03.872Z,6100.00
2018-09-23T07:37:03.844Z,6212.00
2018-09-23T07:38:03.784Z,5944.00
2018-09-23T07:39:15.075Z,5584.00
2018-09-23T07:40:03.783Z,5288.00
2018-09-23T07:41:03.666Z,5296.00
2018-09-23T07:42:03.645Z,5372.00
2018-09-23T07:43:03.587Z,5524.00
2018-09-23T07:44:03.549Z,5768.00
2018-09-23T07:45:03.679Z,6376.00
2018-09-23T07:46:03.474Z,7144.00
2018-09-23T07:47:03.426Z,7544.00
2018-09-23T07:48:03.534Z,7636.00
2018-09-23T07:49:03.367Z,7820.00
2018-09-23T07:50:03.354Z,8120.00
2018-09-23T07:51:03.263Z,8276.00
2018-09-23T07:52:03.237Z,8272.00
2018-09-23T07:53:03.219Z,8448.00
2018-09-23T07:54:03.161Z,8748.00
2018-09-23T07:55:03.170Z,8732.00
2018-09-23T07:56:03.116Z,8636.00
2018-09-23T07:57:03.030Z,8364.00
2018-09-23T07:58:02.999Z,7400.00
2018-09-23T07:59:02.972Z,6028.00
2018-09-23T08:00:02.943Z,5284.00
2018-09-23T08:01:02.909Z,5716.00
2018-09-23T08:02:02.877Z,6688.00
2018-09-23T08:03:02.797Z,6584.00
2018-09-23T08:04:02.780Z,5892.00
2018-09-23T08:05:02.720Z,4980.00
2018-09-23T08:06:02.747Z,4124.00
2018-09-23T08:07:02.664Z,4176.00
2018-09-23T08:08:02.630Z,5200.00
2018-09-23T08:09:02.589Z,6896.00
2018-09-23T08:10:02.534Z,7080.00
2018-09-23T08:11:02.472Z,5688.00
2018-09-23T08:12:02.437Z,6004.00
2018-09-23T08:13:02.580Z,6192.00
2018-09-23T08:14:02.784Z,5032.00
2018-09-23T08:15:02.575Z,4116.00
2018-09-23T08:16:02.307Z,3572.00
2018-09-23T08:17:02.309Z,3624.00
2018-09-23T08:18:02.223Z,3844.00
2018-09-23T08:19:02.258Z,4328.00
2018-09-23T08:20:02.195Z,5176.00
2018-09-23T08:21:02.268Z,5900.00
2018-09-23T08:22:02.044Z,6280.00
2018-09-23T08:23:02.052Z,6756.00
2018-09-23T08:24:01.995Z,7320.00
2018-09-23T08:25:01.937Z,7844.00
2018-09-23T08:26:01.892Z,8476.00
2018-09-23T08:27:01.850Z,8916.00
2018-09-23T08:28:01.807Z,8952.00
2018-09-23T08:29:01.848Z,8516.00
2018-09-23T08:30:01.773Z,8292.00
2018-09-23T08:31:01.681Z,8708.00
2018-09-23T08:32:01.645Z,9268.00
2018-09-23T08:33:01.680Z,9212.00
2018-09-23T08:34:01.614Z,8440.00
2018-09-23T08:35:01.539Z,8128.00
2018-09-23T08:36:01.548Z,8372.00
2018-09-23T08:37:01.451Z,8904.00
2018-09-23T08:38:01.437Z,9912.00
2018-09-23T08:39:01.443Z,10708.00
2018-09-23T08:40:01.379Z,10508.00
2018-09-23T08:41:01.312Z,9984.00
2018-09-23T08:42:01.264Z,9676.00
2018-09-23T08:43:01.328Z,9760.00
2018-09-23T08:44:01.222Z,9404.00
2018-09-23T08:45:01.147Z,8996.00
2018-09-23T08:46:01.145Z,9792.00
2018-09-23T08:47:01.061Z,10992.00
2018-09-23T08:48:01.118Z,12468.00
2018-09-23T08:49:01.001Z,13176.00
2018-09-23T08:50:00.954Z,10996.00
2018-09-23T08:51:00.912Z,8864.00
2018-09-23T08:52:00.876Z,8128.00
2018-09-23T08:53:00.857Z,7832.00
2018-09-23T08:54:00.787Z,7328.00
2018-09-23T08:55:00.749Z,6700.00
2018-09-23T08:56:00.718Z,6416.00
2018-09-23T08:57:00.674Z,6316.00
2018-09-23T08:58:00.665Z,6000.00
2018-09-23T08:59:00.600Z,5792.00
2018-09-23T09:00:00.557Z,5648.00
2018-09-23T09:01:00.521Z,5284.00
2018-09-23T09:02:00.488Z,5224.00
2018-09-23T09:03:00.461Z,5732.00
2018-09-23T09:04:00.394Z,6764.00
2018-09-23T09:05:00.371Z,8224.00
2018-09-23T09:06:00.315Z,9696.00
2018-09-23T09:07:00.278Z,10144.00
2018-09-23T09:08:00.264Z,9860.00
2018-09-23T09:09:00.192Z,9780.00
2018-09-23T09:10:00.174Z,9456.00
2018-09-23T09:11:00.132Z,8580.00
2018-09-23T09:12:00.084Z,8676.00
2018-09-23T09:13:00.070Z,9792.00
2018-09-23T09:14:10.277Z,11104.00
2018-09-23T09:15:00.082Z,10116.00
2018-09-23T09:15:59.954Z,8528.00
2018-09-23T09:16:59.911Z,7996.00
2018-09-23T09:17:59.896Z,7608.00
2018-09-23T09:18:59.814Z,7792.00
2018-09-23T09:19:59.755Z,7888.00
2018-09-23T09:20:59.741Z,7064.00
2018-09-23T09:21:59.700Z,6180.00
2018-09-23T09:22:59.672Z,5336.00
2018-09-23T09:23:59.610Z,4688.00
2018-09-23T09:24:59.564Z,4648.00
2018-09-23T09:25:59.540Z,4768.00
2018-09-23T09:26:59.517Z,4644.00
2018-09-23T09:27:59.479Z,4620.00
2018-09-23T09:28:59.430Z,4788.00
2018-09-23T09:29:59.377Z,4744.00
2018-09-23T09:30:59.338Z,4684.00
2018-09-23T09:31:59.287Z,4960.00
2018-09-23T09:32:59.272Z,5592.00
2018-09-23T09:33:59.221Z,6184.00
2018-09-23T09:34:59.172Z,6336.00
2018-09-23T09:35:59.171Z,6584.00
2018-09-23T09:36:59.148Z,7124.00
2018-09-23T09:38:09.582Z,7616.00
2018-09-23T09:38:59.015Z,8252.00
2018-09-23T09:39:59.079Z,8808.00
2018-09-23T09:40:58.954Z,8956.00
2018-09-23T09:41:58.952Z,8648.00
2018-09-23T09:42:58.858Z,8396.00
2018-09-23T09:43:58.828Z,8524.00
2018-09-23T09:44:58.769Z,9452.00
2018-09-23T09:45:58.756Z,10404.00
2018-09-23T09:46:58.729Z,11560.00
2018-09-23T09:47:58.664Z,12360.00
2018-09-23T09:48:58.628Z,11860.00
2018-09-23T09:49:58.584Z,10880.00
2018-09-23T09:50:58.541Z,9212.00
2018-09-23T09:51:58.595Z,8204.00
2018-09-23T09:52:58.480Z,8388.00
2018-09-23T09:53:58.528Z,8620.00
2018-09-23T09:54:58.414Z,8380.00
2018-09-23T09:55:58.354Z,8248.00
2018-09-23T09:56:58.346Z,8160.00
2018-09-23T09:57:58.405Z,7704.00
2018-09-23T09:58:58.237Z,7364.00
2018-09-23T09:59:58.198Z,7264.00
2018-09-23T10:00:58.180Z,6928.00
2018-09-23T10:02:07.126Z,6604.00
2018-09-23T10:02:58.074Z,6396.00
2018-09-23T10:03:58.184Z,6228.00
2018-09-23T10:04:57.996Z,5932.00
2018-09-23T10:05:58.019Z,5876.00
2018-09-23T10:06:57.926Z,6612.00
2018-09-23T10:07:57.874Z,7788.00
2018-09-23T10:08:57.847Z,9076.00
2018-09-23T10:09:57.825Z,9072.00
2018-09-23T10:10:57.766Z,8068.00
2018-09-23T10:11:57.738Z,7640.00
2018-09-23T10:12:57.682Z,7344.00
2018-09-23T10:13:57.636Z,6380.00
2018-09-23T10:14:57.590Z,5560.00
2018-09-23T10:15:57.791Z,5736.00
2018-09-23T10:16:57.568Z,5788.00
2018-09-23T10:17:57.537Z,5468.00
2018-09-23T10:18:57.463Z,5672.00
2018-09-23T10:19:57.539Z,6068.00
2018-09-23T10:20:57.503Z,6156.00
2018-09-23T10:21:57.323Z,6108.00
2018-09-23T10:22:57.313Z,6240.00
2018-09-23T10:23:57.263Z,6536.00
2018-09-23T10:24:57.340Z,7036.00
2018-09-23T10:25:57.219Z,7068.00
2018-09-23T10:26:57.123Z,6584.00
2018-09-23T10:27:57.095Z,6288.00
2018-09-23T10:28:57.042Z,6156.00
2018-09-23T10:29:57.143Z,5436.00
2018-09-23T10:30:57.100Z,4640.00
2018-09-23T10:31:56.936Z,4100.00
2018-09-23T10:32:56.884Z,3988.00
2018-09-23T10:33:56.836Z,3992.00
2018-09-23T10:34:56.815Z,3696.00
2018-09-23T10:35:56.789Z,3592.00
2018-09-23T10:36:56.745Z,3800.00
2018-09-23T10:37:56.686Z,3960.00
2018-09-23T10:38:56.637Z,4004.00
2018-09-23T10:39:56.737Z,4032.00
2018-09-23T10:40:56.614Z,4020.00
2018-09-23T10:41:56.530Z,4132.00
2018-09-23T10:42:56.504Z,4280.00
2018-09-23T10:43:56.447Z,4336.00
2018-09-23T10:44:56.399Z,4368.00
2018-09-23T10:45:56.385Z,4384.00
2018-09-23T10:46:56.316Z,4288.00
2018-09-23T10:47:56.287Z,4280.00
2018-09-23T10:48:56.244Z,4312.00
2018-09-23T10:49:56.202Z,3336.00
2018-09-23T10:50:56.186Z,2820.00
2018-09-23T10:51:56.120Z,2520.00
2018-09-23T10:52:56.139Z,2496.00
2018-09-23T10:53:56.053Z,2912.00
2018-09-23T10:54:56.038Z,3384.00
2018-09-23T10:55:55.989Z,3580.00
2018-09-23T10:56:55.995Z,3380.00
2018-09-23T10:57:55.892Z,3172.00
2018-09-23T10:58:55.842Z,3372.00
2018-09-23T10:59:55.853Z,3572.00
2018-09-23T11:00:55.791Z,3668.00
2018-09-23T11:01:55.748Z,4128.00
2018-09-23T11:02:55.698Z,4660.00
2018-09-23T11:03:55.768Z,5148.00
2018-09-23T11:04:55.629Z,6088.00
2018-09-23T11:05:55.575Z,7152.00
2018-09-23T11:06:55.514Z,8876.00
2018-09-23T11:07:55.527Z,10012.00
2018-09-23T11:08:55.450Z,11060.00
2018-09-23T11:09:55.459Z,11660.00
2018-09-23T11:10:55.359Z,10832.00
2018-09-23T11:11:55.330Z,9276.00
2018-09-23T11:12:55.306Z,9168.00
2018-09-23T11:13:55.258Z,8880.00
2018-09-23T11:14:55.232Z,8672.00
2018-09-23T11:15:55.191Z,8824.00
2018-09-23T11:16:55.124Z,9460.00
2018-09-23T11:17:55.082Z,9988.00
2018-09-23T11:18:55.061Z,10804.00
2018-09-23T11:19:55.025Z,11104.00
2018-09-23T11:20:54.974Z,10804.00
2018-09-23T11:21:54.934Z,9428.00
2018-09-23T11:22:54.904Z,9340.00
2018-09-23T11:23:54.836Z,9504.00
2018-09-23T11:24:54.894Z,10724.00
2018-09-23T11:25:54.791Z,11552.00
2018-09-23T11:26:54.731Z,11432.00
2018-09-23T11:27:54.707Z,12392.00
2018-09-23T11:28:54.647Z,13428.00
2018-09-23T11:29:54.621Z,12360.00
2018-09-23T11:30:54.563Z,11180.00
2018-09-23T11:31:54.550Z,11196.00
2018-09-23T11:32:54.517Z,11764.00
2018-09-23T11:33:54.466Z,11052.00
2018-09-23T11:34:54.430Z,11008.00
2018-09-23T11:36:04.665Z,8660.00
2018-09-23T11:36:54.318Z,6748.00
2018-09-23T11:37:54.295Z,7720.00
2018-09-23T11:38:54.251Z,10148.00
2018-09-23T11:39:54.276Z,11724.00
2018-09-23T11:40:54.177Z,10968.00
2018-09-23T11:41:54.124Z,11600.00
2018-09-23T11:42:54.154Z,14656.00
2018-09-23T11:43:54.059Z,14396.00
2018-09-23T11:44:54.035Z,10680.00
2018-09-23T11:45:53.972Z,5980.00
2018-09-23T11:46:53.926Z,4936.00
2018-09-23T11:47:53.882Z,5508.00
2018-09-23T11:48:53.851Z,5556.00
2018-09-23T11:49:53.867Z,6728.00
2018-09-23T11:50:53.781Z,5304.00
2018-09-23T11:51:53.739Z,3776.00
2018-09-23T11:52:53.698Z,2208.00
2018-09-23T11:53:53.676Z,1916.00
2018-09-23T11:54:53.611Z,1824.00
2018-09-23T11:55:53.576Z,2116.00
2018-09-23T11:56:53.534Z,2100.00
2018-09-23T11:57:53.506Z,1860.00
2018-09-23T11:58:53.499Z,1640.00
2018-09-23T11:59:53.444Z,1312.00
2018-09-23T12:00:53.388Z,1164.00
2018-09-23T12:01:53.349Z,1652.00
2018-09-23T12:02:53.305Z,2316.00
2018-09-23T12:03:53.280Z,2160.00
2018-09-23T12:04:53.213Z,2784.00
2018-09-23T12:05:53.186Z,3336.00
2018-09-23T12:06:53.135Z,3924.00
2018-09-23T12:07:53.111Z,4796.00
2018-09-23T12:08:53.067Z,5200.00
2018-09-23T12:09:53.042Z,5352.00
2018-09-23T12:10:53.003Z,5740.00
2018-09-23T12:11:52.950Z,5956.00
2018-09-23T12:12:52.880Z,6432.00
2018-09-23T12:13:52.883Z,6756.00
2018-09-23T12:14:52.860Z,6484.00
2018-09-23T12:15:52.760Z,5744.00
2018-09-23T12:16:52.739Z,4776.00
2018-09-23T12:17:52.678Z,4716.00
2018-09-23T12:18:52.736Z,4248.00
2018-09-23T12:19:52.630Z,4748.00
2018-09-23T12:20:52.573Z,4084.00
2018-09-23T12:21:52.549Z,4444.00
2018-09-23T12:22:52.498Z,5492.00
2018-09-23T12:23:52.472Z,5536.00
2018-09-23T12:24:52.408Z,6016.00
2018-09-23T12:25:52.384Z,5272.00
2018-09-23T12:26:52.321Z,5420.00
2018-09-23T12:27:52.299Z,4888.00
2018-09-23T12:28:52.284Z,6088.00
2018-09-23T12:29:52.219Z,6540.00
2018-09-23T12:30:52.177Z,6964.00
2018-09-23T12:31:52.125Z,6224.00
2018-09-23T12:32:52.108Z,5384.00
2018-09-23T12:33:52.066Z,3696.00